sensor_id;sensor_type;location;lat;lon;timestamp;pressure;altitude;pressure_sealevel;temperature;humidity
74613;BME280;63119;51.788;8.824;2022-12-07T00:00:29;99987.53;;;3.51;96.77
74613;BME280;63119;51.788;8.824;2022-12-07T00:02:55;99983.19;;;3.50;96.79
74613;BME280;63119;51.788;8.824;2022-12-07T00:05:20;99985.69;;;3.53;96.28
74613;BME280;63119;51.788;8.824;2022-12-07T00:07:45;99987.41;;;3.54;97.13
74613;BME280;63119;51.788;8.824;2022-12-07T00:10:11;99971.59;;;3.57;96.71
74613;BME280;63119;51.788;8.824;2022-12-07T00:12:36;99984.50;;;3.61;96.41
74613;BME280;63119;51.788;8.824;2022-12-07T00:15:01;99977.63;;;3.59;96.70
74613;BME280;63119;51.788;8.824;2022-12-07T00:17:26;99978.41;;;3.61;96.85
74613;BME280;63119;51.788;8.824;2022-12-07T00:19:52;99969.63;;;3.62;96.32
74613;BME280;63119;51.788;8.824;2022-12-07T00:22:17;99966.53;;;3.74;96.41
74613;BME280;63119;51.788;8.824;2022-12-07T00:24:42;99966.84;;;3.88;96.66
74613;BME280;63119;51.788;8.824;2022-12-07T00:27:07;99966.22;;;3.81;96.09
74613;BME280;63119;51.788;8.824;2022-12-07T00:29:33;99974.13;;;3.80;96.58
74613;BME280;63119;51.788;8.824;2022-12-07T00:31:58;99969.09;;;3.75;96.31
74613;BME280;63119;51.788;8.824;2022-12-07T00:34:23;99964.66;;;3.77;96.40
74613;BME280;63119;51.788;8.824;2022-12-07T00:36:49;99968.19;;;3.76;96.37
74613;BME280;63119;51.788;8.824;2022-12-07T00:39:14;99966.47;;;3.75;96.78
74613;BME280;63119;51.788;8.824;2022-12-07T00:41:40;99962.34;;;3.70;96.74
74613;BME280;63119;51.788;8.824;2022-12-07T00:44:05;99963.78;;;3.77;96.90
74613;BME280;63119;51.788;8.824;2022-12-07T00:46:31;99955.03;;;3.78;96.81
74613;BME280;63119;51.788;8.824;2022-12-07T00:48:56;99966.47;;;3.75;97.35
74613;BME280;63119;51.788;8.824;2022-12-07T00:51:23;99953.06;;;3.83;97.25
74613;BME280;63119;51.788;8.824;2022-12-07T00:53:49;99954.91;;;3.81;96.57
74613;BME280;63119;51.788;8.824;2022-12-07T00:56:17;99947.78;;;3.84;97.15
74613;BME280;63119;51.788;8.824;2022-12-07T00:58:43;99947.66;;;3.88;96.08
74613;BME280;63119;51.788;8.824;2022-12-07T01:01:10;99945.09;;;3.86;96.23
74613;BME280;63119;51.788;8.824;2022-12-07T01:03:36;99944.75;;;3.95;95.79
74613;BME280;63119;51.788;8.824;2022-12-07T01:06:02;99941.56;;;3.87;96.17
74613;BME280;63119;51.788;8.824;2022-12-07T01:08:28;99942.06;;;3.97;96.32
74613;BME280;63119;51.788;8.824;2022-12-07T01:11:06;99942.81;;;3.99;96.90
74613;BME280;63119;51.788;8.824;2022-12-07T01:13:33;99942.25;;;3.92;96.94
74613;BME280;63119;51.788;8.824;2022-12-07T01:16:01;99931.06;;;3.89;96.27
74613;BME280;63119;51.788;8.824;2022-12-07T01:18:28;99945.91;;;3.88;97.02
74613;BME280;63119;51.788;8.824;2022-12-07T01:20:58;99943.22;;;3.90;96.72
74613;BME280;63119;51.788;8.824;2022-12-07T01:23:23;99943.94;;;3.93;97.17
74613;BME280;63119;51.788;8.824;2022-12-07T01:25:57;99941.00;;;4.01;96.26
74613;BME280;63119;51.788;8.824;2022-12-07T01:28:23;99950.88;;;3.94;96.64
74613;BME280;63119;51.788;8.824;2022-12-07T01:31:04;99946.63;;;3.92;96.57
74613;BME280;63119;51.788;8.824;2022-12-07T01:33:33;99950.09;;;3.92;96.94
74613;BME280;63119;51.788;8.824;2022-12-07T01:38:28;99944.06;;;3.90;96.54
74613;BME280;63119;51.788;8.824;2022-12-07T01:40:55;99945.00;;;3.89;96.90
74613;BME280;63119;51.788;8.824;2022-12-07T01:43:20;99952.59;;;3.95;97.11
74613;BME280;63119;51.788;8.824;2022-12-07T01:45:47;99961.34;;;3.94;96.47
74613;BME280;63119;51.788;8.824;2022-12-07T01:48:16;99958.75;;;3.94;97.27
74613;BME280;63119;51.788;8.824;2022-12-07T01:50:44;99966.47;;;3.97;97.11
74613;BME280;63119;51.788;8.824;2022-12-07T01:53:10;99956.91;;;3.96;96.86
74613;BME280;63119;51.788;8.824;2022-12-07T01:55:40;99961.09;;;4.00;97.27
74613;BME280;63119;51.788;8.824;2022-12-07T01:58:05;99955.88;;;4.00;96.56
74613;BME280;63119;51.788;8.824;2022-12-07T02:00:31;99958.34;;;4.03;96.67
74613;BME280;63119;51.788;8.824;2022-12-07T02:03:02;99950.41;;;4.05;96.89
74613;BME280;63119;51.788;8.824;2022-12-07T02:05:30;99955.53;;;4.08;96.74
74613;BME280;63119;51.788;8.824;2022-12-07T02:07:56;99951.84;;;4.13;96.78
74613;BME280;63119;51.788;8.824;2022-12-07T02:10:30;99948.94;;;4.19;96.98
74613;BME280;63119;51.788;8.824;2022-12-07T02:12:58;99951.56;;;4.19;96.09
74613;BME280;63119;51.788;8.824;2022-12-07T02:15:50;99943.03;;;4.14;96.15
74613;BME280;63119;51.788;8.824;2022-12-07T02:21:09;99936.91;;;4.15;96.86
74613;BME280;63119;51.788;8.824;2022-12-07T02:26:39;99936.94;;;4.14;96.43
74613;BME280;63119;51.788;8.824;2022-12-07T02:29:21;99943.03;;;4.14;96.22
74613;BME280;63119;51.788;8.824;2022-12-07T02:32:03;99936.13;;;4.13;96.94
74613;BME280;63119;51.788;8.824;2022-12-07T02:37:26;99935.59;;;4.25;95.88
74613;BME280;63119;51.788;8.824;2022-12-07T02:39:59;99936.50;;;4.24;95.80
74613;BME280;63119;51.788;8.824;2022-12-07T02:42:36;99933.09;;;4.22;95.79
74613;BME280;63119;51.788;8.824;2022-12-07T02:45:05;99931.25;;;4.24;96.37
74613;BME280;63119;51.788;8.824;2022-12-07T02:47:32;99930.50;;;4.22;96.54
74613;BME280;63119;51.788;8.824;2022-12-07T02:49:59;99932.16;;;4.23;96.93
74613;BME280;63119;51.788;8.824;2022-12-07T02:52:24;99931.13;;;4.27;96.12
74613;BME280;63119;51.788;8.824;2022-12-07T02:54:49;99924.31;;;4.23;96.53
74613;BME280;63119;51.788;8.824;2022-12-07T03:00:09;99931.91;;;4.29;96.06
74613;BME280;63119;51.788;8.824;2022-12-07T03:08:31;99925.13;;;4.25;96.52
74613;BME280;63119;51.788;8.824;2022-12-07T03:11:03;99929.97;;;4.34;96.85
74613;BME280;63119;51.788;8.824;2022-12-07T03:16:19;99926.41;;;4.35;96.52
74613;BME280;63119;51.788;8.824;2022-12-07T03:18:47;99921.75;;;4.42;96.00
74613;BME280;63119;51.788;8.824;2022-12-07T03:21:20;99921.03;;;4.38;96.43
74613;BME280;63119;51.788;8.824;2022-12-07T03:23:51;99920.84;;;4.43;95.43
74613;BME280;63119;51.788;8.824;2022-12-07T03:26:19;99919.34;;;4.37;96.01
74613;BME280;63119;51.788;8.824;2022-12-07T03:28:52;99915.78;;;4.38;95.69
74613;BME280;63119;51.788;8.824;2022-12-07T03:31:26;99918.28;;;4.41;95.07
74613;BME280;63119;51.788;8.824;2022-12-07T03:34:00;99918.63;;;4.34;94.95
74613;BME280;63119;51.788;8.824;2022-12-07T03:36:55;99917.13;;;4.28;95.46
74613;BME280;63119;51.788;8.824;2022-12-07T03:39:36;99919.81;;;4.27;95.28
74613;BME280;63119;51.788;8.824;2022-12-07T03:42:05;99917.78;;;4.33;95.63
74613;BME280;63119;51.788;8.824;2022-12-07T03:44:34;99918.53;;;4.35;95.02
74613;BME280;63119;51.788;8.824;2022-12-07T03:47:04;99921.28;;;4.32;95.36
74613;BME280;63119;51.788;8.824;2022-12-07T03:49:51;99924.84;;;4.31;94.66
74613;BME280;63119;51.788;8.824;2022-12-07T03:55:14;99923.72;;;4.37;94.94
74613;BME280;63119;51.788;8.824;2022-12-07T03:57:42;99922.88;;;4.36;94.11
74613;BME280;63119;51.788;8.824;2022-12-07T04:00:11;99916.91;;;4.33;94.74
74613;BME280;63119;51.788;8.824;2022-12-07T04:02:37;99922.16;;;4.33;94.24
74613;BME280;63119;51.788;8.824;2022-12-07T04:05:03;99922.34;;;4.49;94.71
74613;BME280;63119;51.788;8.824;2022-12-07T04:07:29;99923.59;;;4.40;94.02
74613;BME280;63119;51.788;8.824;2022-12-07T04:09:54;99915.78;;;4.38;94.00
74613;BME280;63119;51.788;8.824;2022-12-07T04:12:23;99910.56;;;4.38;92.82
74613;BME280;63119;51.788;8.824;2022-12-07T04:14:48;99915.78;;;4.38;93.78
74613;BME280;63119;51.788;8.824;2022-12-07T04:17:13;99919.22;;;4.40;93.49
74613;BME280;63119;51.788;8.824;2022-12-07T04:19:39;99910.69;;;4.35;93.60
74613;BME280;63119;51.788;8.824;2022-12-07T04:22:05;99922.00;;;4.36;92.91
74613;BME280;63119;51.788;8.824;2022-12-07T04:24:31;99921.56;;;4.26;93.44
74613;BME280;63119;51.788;8.824;2022-12-07T04:26:56;99923.31;;;4.26;93.63
74613;BME280;63119;51.788;8.824;2022-12-07T04:29:22;99921.63;;;4.25;93.61
74613;BME280;63119;51.788;8.824;2022-12-07T04:31:48;99913.66;;;4.28;93.88
74613;BME280;63119;51.788;8.824;2022-12-07T04:34:14;99924.13;;;4.28;93.65
74613;BME280;63119;51.788;8.824;2022-12-07T04:36:40;99919.47;;;4.34;93.57
74613;BME280;63119;51.788;8.824;2022-12-07T04:39:07;99925.53;;;4.35;93.00
74613;BME280;63119;51.788;8.824;2022-12-07T04:41:33;99924.19;;;4.26;93.33
74613;BME280;63119;51.788;8.824;2022-12-07T04:44:00;99920.78;;;4.24;92.59
74613;BME280;63119;51.788;8.824;2022-12-07T04:46:28;99915.91;;;4.35;92.58
74613;BME280;63119;51.788;8.824;2022-12-07T04:48:54;99921.81;;;4.20;93.26
74613;BME280;63119;51.788;8.824;2022-12-07T04:51:22;99915.56;;;4.24;93.81
74613;BME280;63119;51.788;8.824;2022-12-07T04:53:47;99919.03;;;4.25;93.05
74613;BME280;63119;51.788;8.824;2022-12-07T04:56:14;99914.78;;;4.22;92.97
74613;BME280;63119;51.788;8.824;2022-12-07T04:58:40;99913.91;;;4.22;93.31
74613;BME280;63119;51.788;8.824;2022-12-07T05:01:06;99917.41;;;4.22;92.34
74613;BME280;63119;51.788;8.824;2022-12-07T05:03:31;99909.66;;;4.19;92.60
74613;BME280;63119;51.788;8.824;2022-12-07T05:05:56;99914.78;;;4.22;92.93
74613;BME280;63119;51.788;8.824;2022-12-07T05:08:22;99920.19;;;4.18;93.14
74613;BME280;63119;51.788;8.824;2022-12-07T05:10:49;99915.88;;;4.17;93.01
74613;BME280;63119;51.788;8.824;2022-12-07T05:13:14;99911.75;;;4.11;93.49
74613;BME280;63119;51.788;8.824;2022-12-07T05:15:40;99914.31;;;4.13;93.62
74613;BME280;63119;51.788;8.824;2022-12-07T05:18:05;99914.75;;;4.02;93.11
74613;BME280;63119;51.788;8.824;2022-12-07T05:20:30;99917.13;;;4.08;93.65
74613;BME280;63119;51.788;8.824;2022-12-07T05:22:56;99918.19;;;4.04;93.28
74613;BME280;63119;51.788;8.824;2022-12-07T05:25:23;99917.91;;;4.10;92.98
74613;BME280;63119;51.788;8.824;2022-12-07T05:27:49;99913.97;;;4.20;93.38
74613;BME280;63119;51.788;8.824;2022-12-07T05:30:14;99918.56;;;4.15;92.35
74613;BME280;63119;51.788;8.824;2022-12-07T05:32:40;99917.78;;;4.13;92.66
74613;BME280;63119;51.788;8.824;2022-12-07T05:35:06;99921.44;;;4.09;92.46
74613;BME280;63119;51.788;8.824;2022-12-07T05:37:32;99925.81;;;4.09;92.63
74613;BME280;63119;51.788;8.824;2022-12-07T05:39:57;99918.97;;;4.06;92.39
74613;BME280;63119;51.788;8.824;2022-12-07T05:42:22;99920.31;;;4.15;92.58
74613;BME280;63119;51.788;8.824;2022-12-07T05:44:47;99923.81;;;4.15;92.81
74613;BME280;63119;51.788;8.824;2022-12-07T05:47:14;99917.13;;;4.08;92.48
74613;BME280;63119;51.788;8.824;2022-12-07T05:49:39;99915.56;;;4.04;93.09
74613;BME280;63119;51.788;8.824;2022-12-07T05:52:05;99913.84;;;4.03;92.75
74613;BME280;63119;51.788;8.824;2022-12-07T05:54:31;99913.00;;;4.03;93.15
74613;BME280;63119;51.788;8.824;2022-12-07T05:56:56;99906.25;;;3.97;92.72
74613;BME280;63119;51.788;8.824;2022-12-07T05:59:22;99899.25;;;3.98;92.44
74613;BME280;63119;51.788;8.824;2022-12-07T06:01:48;99895.97;;;3.93;93.27
74613;BME280;63119;51.788;8.824;2022-12-07T06:04:13;99902.06;;;3.93;93.76
74613;BME280;63119;51.788;8.824;2022-12-07T06:06:38;99897.06;;;3.87;93.61
74613;BME280;63119;51.788;8.824;2022-12-07T06:09:04;99905.59;;;3.92;93.65
74613;BME280;63119;51.788;8.824;2022-12-07T06:11:30;99900.50;;;3.89;93.24
74613;BME280;63119;51.788;8.824;2022-12-07T06:14:14;99903.91;;;3.91;93.49
74613;BME280;63119;51.788;8.824;2022-12-07T06:16:39;99906.19;;;3.99;92.16
74613;BME280;63119;51.788;8.824;2022-12-07T06:19:04;99907.16;;;3.96;92.08
74613;BME280;63119;51.788;8.824;2022-12-07T06:21:30;99913.34;;;3.95;92.99
74613;BME280;63119;51.788;8.824;2022-12-07T06:23:55;99904.66;;;3.93;92.26
74613;BME280;63119;51.788;8.824;2022-12-07T06:26:21;99913.38;;;3.94;93.21
74613;BME280;63119;51.788;8.824;2022-12-07T06:28:46;99902.44;;;3.84;92.41
74613;BME280;63119;51.788;8.824;2022-12-07T06:31:11;99906.81;;;3.83;93.47
74613;BME280;63119;51.788;8.824;2022-12-07T06:33:37;99907.53;;;3.87;93.14
74613;BME280;63119;51.788;8.824;2022-12-07T06:36:02;99905.84;;;3.86;92.29
74613;BME280;63119;51.788;8.824;2022-12-07T06:38:27;99910.75;;;3.94;92.24
74613;BME280;63119;51.788;8.824;2022-12-07T06:40:53;99919.78;;;3.86;93.08
74613;BME280;63119;51.788;8.824;2022-12-07T06:43:18;99905.66;;;3.91;93.36
74613;BME280;63119;51.788;8.824;2022-12-07T06:45:43;99913.13;;;3.79;93.08
74613;BME280;63119;51.788;8.824;2022-12-07T06:48:08;99908.72;;;3.80;92.34
74613;BME280;63119;51.788;8.824;2022-12-07T06:50:34;99921.09;;;3.76;92.86
74613;BME280;63119;51.788;8.824;2022-12-07T06:52:59;99915.66;;;3.81;92.79
74613;BME280;63119;51.788;8.824;2022-12-07T06:55:24;99923.72;;;3.76;93.47
74613;BME280;63119;51.788;8.824;2022-12-07T06:57:50;99914.75;;;3.82;93.23
74613;BME280;63119;51.788;8.824;2022-12-07T07:00:15;99913.63;;;3.88;92.76
74613;BME280;63119;51.788;8.824;2022-12-07T07:02:41;99910.16;;;3.87;92.71
74613;BME280;63119;51.788;8.824;2022-12-07T07:05:06;99921.53;;;3.86;92.40
74613;BME280;63119;51.788;8.824;2022-12-07T07:07:32;99922.78;;;3.77;93.11
74613;BME280;63119;51.788;8.824;2022-12-07T07:09:57;99926.00;;;3.84;92.29
74613;BME280;63119;51.788;8.824;2022-12-07T07:12:22;99933.94;;;3.82;92.58
74613;BME280;63119;51.788;8.824;2022-12-07T07:14:47;99930.06;;;3.91;92.29
74613;BME280;63119;51.788;8.824;2022-12-07T07:17:13;99933.72;;;3.87;92.18
74613;BME280;63119;51.788;8.824;2022-12-07T07:19:38;99936.59;;;3.81;92.49
74613;BME280;63119;51.788;8.824;2022-12-07T07:22:03;99939.34;;;3.78;92.74
74613;BME280;63119;51.788;8.824;2022-12-07T07:24:29;99933.13;;;3.80;93.17
74613;BME280;63119;51.788;8.824;2022-12-07T07:26:54;99931.31;;;3.82;91.97
74613;BME280;63119;51.788;8.824;2022-12-07T07:29:19;99932.22;;;3.81;92.30
74613;BME280;63119;51.788;8.824;2022-12-07T07:31:45;99936.34;;;3.87;91.96
74613;BME280;63119;51.788;8.824;2022-12-07T07:34:10;99931.31;;;3.82;91.77
74613;BME280;63119;51.788;8.824;2022-12-07T07:36:35;99938.22;;;3.83;92.05
74613;BME280;63119;51.788;8.824;2022-12-07T07:39:00;99942.69;;;3.81;92.56
74613;BME280;63119;51.788;8.824;2022-12-07T07:41:26;99944.31;;;3.84;92.77
74613;BME280;63119;51.788;8.824;2022-12-07T07:43:51;99942.84;;;3.77;91.82
74613;BME280;63119;51.788;8.824;2022-12-07T07:46:16;99942.97;;;3.74;92.45
74613;BME280;63119;51.788;8.824;2022-12-07T07:48:42;99943.72;;;3.77;92.15
74613;BME280;63119;51.788;8.824;2022-12-07T07:51:07;99942.59;;;3.83;92.07
74613;BME280;63119;51.788;8.824;2022-12-07T07:53:33;99945.94;;;3.86;91.81
74613;BME280;63119;51.788;8.824;2022-12-07T07:55:58;99944.78;;;4.14;94.84
74613;BME280;63119;51.788;8.824;2022-12-07T07:58:23;99948.94;;;4.19;93.44
74613;BME280;63119;51.788;8.824;2022-12-07T08:00:49;99949.03;;;4.57;92.19
74613;BME280;63119;51.788;8.824;2022-12-07T08:03:14;99945.50;;;4.58;90.49
74613;BME280;63119;51.788;8.824;2022-12-07T08:05:40;99946.69;;;4.71;88.67
74613;BME280;63119;51.788;8.824;2022-12-07T08:08:05;99950.16;;;4.51;88.86
74613;BME280;63119;51.788;8.824;2022-12-07T08:10:31;99953.72;;;4.30;89.80
74613;BME280;63119;51.788;8.824;2022-12-07T08:12:57;99951.56;;;4.19;90.34
74613;BME280;63119;51.788;8.824;2022-12-07T08:15:43;99958.09;;;4.09;89.73
74613;BME280;63119;51.788;8.824;2022-12-07T08:18:09;99953.38;;;3.97;90.99
74613;BME280;63119;51.788;8.824;2022-12-07T08:20:35;99957.84;;;3.95;90.67
74613;BME280;63119;51.788;8.824;2022-12-07T08:23:01;99956.41;;;3.86;91.31
74613;BME280;63119;51.788;8.824;2022-12-07T08:25:27;99962.47;;;3.89;91.90
74613;BME280;63119;51.788;8.824;2022-12-07T08:27:53;99956.63;;;3.82;91.53
74613;BME280;63119;51.788;8.824;2022-12-07T08:30:19;99955.25;;;3.94;91.14
74613;BME280;63119;51.788;8.824;2022-12-07T08:32:45;99958.19;;;3.86;90.65
74613;BME280;63119;51.788;8.824;2022-12-07T08:35:12;99958.19;;;3.86;91.73
74613;BME280;63119;51.788;8.824;2022-12-07T08:37:38;99960.91;;;3.83;90.70
74613;BME280;63119;51.788;8.824;2022-12-07T08:40:05;99964.41;;;3.83;90.70
74613;BME280;63119;51.788;8.824;2022-12-07T08:42:31;99966.22;;;3.81;91.04
74613;BME280;63119;51.788;8.824;2022-12-07T08:45:05;99963.63;;;3.81;91.55
74613;BME280;63119;51.788;8.824;2022-12-07T08:47:30;99963.53;;;3.83;90.99
74613;BME280;63119;51.788;8.824;2022-12-07T08:49:55;99969.88;;;3.77;90.95
74613;BME280;63119;51.788;8.824;2022-12-07T08:52:21;99966.47;;;3.75;91.59
74613;BME280;63119;51.788;8.824;2022-12-07T08:54:47;99968.38;;;3.72;91.63
74613;BME280;63119;51.788;8.824;2022-12-07T08:57:13;99954.13;;;3.79;91.14
74613;BME280;63119;51.788;8.824;2022-12-07T08:59:38;99966.59;;;3.72;91.62
74613;BME280;63119;51.788;8.824;2022-12-07T09:02:05;99954.31;;;3.74;91.72
74613;BME280;63119;51.788;8.824;2022-12-07T09:04:31;99959.63;;;3.73;91.87
74613;BME280;63119;51.788;8.824;2022-12-07T09:06:56;99956.16;;;3.72;91.19
74613;BME280;63119;51.788;8.824;2022-12-07T09:09:22;99948.53;;;3.88;91.12
74613;BME280;63119;51.788;8.824;2022-12-07T09:11:47;99959.53;;;3.74;90.58
74613;BME280;63119;51.788;8.824;2022-12-07T09:14:13;99963.38;;;3.66;91.27
74613;BME280;63119;51.788;8.824;2022-12-07T09:16:39;99961.47;;;3.91;91.37
74613;BME280;63119;51.788;8.824;2022-12-07T09:19:04;99961.97;;;3.79;90.46
74613;BME280;63119;51.788;8.824;2022-12-07T09:21:29;99961.97;;;3.79;91.23
74613;BME280;63119;51.788;8.824;2022-12-07T09:23:55;99962.72;;;3.82;90.55
74613;BME280;63119;51.788;8.824;2022-12-07T09:26:20;99970.25;;;3.90;90.70
74613;BME280;63119;51.788;8.824;2022-12-07T09:28:46;99964.41;;;3.83;89.96
74613;BME280;63119;51.788;8.824;2022-12-07T09:31:11;99961.91;;;3.80;90.16
74613;BME280;63119;51.788;8.824;2022-12-07T09:33:36;99961.16;;;3.77;90.60
74613;BME280;63119;51.788;8.824;2022-12-07T09:36:03;99964.00;;;3.72;90.82
74613;BME280;63119;51.788;8.824;2022-12-07T09:38:28;99962.88;;;3.78;91.07
74613;BME280;63119;51.788;8.824;2022-12-07T09:40:55;99962.72;;;3.82;91.07
74613;BME280;63119;51.788;8.824;2022-12-07T09:43:22;99963.66;;;3.80;90.72
74613;BME280;63119;51.788;8.824;2022-12-07T09:45:51;99965.94;;;3.89;89.99
74613;BME280;63119;51.788;8.824;2022-12-07T09:48:21;99964.03;;;3.93;90.75
74613;BME280;63119;51.788;8.824;2022-12-07T09:50:48;99974.19;;;4.00;90.07
74613;BME280;63119;51.788;8.824;2022-12-07T09:53:20;99963.84;;;3.97;90.01
74613;BME280;63119;51.788;8.824;2022-12-07T09:55:48;99961.16;;;3.99;90.36
74613;BME280;63119;51.788;8.824;2022-12-07T09:58:21;99964.63;;;3.99;91.04
74613;BME280;63119;51.788;8.824;2022-12-07T10:00:47;99960.50;;;3.94;91.05
74613;BME280;63119;51.788;8.824;2022-12-07T10:03:13;99959.38;;;3.99;91.27
74613;BME280;63119;51.788;8.824;2022-12-07T10:05:42;99959.50;;;3.96;90.90
74613;BME280;63119;51.788;8.824;2022-12-07T10:08:11;99957.72;;;3.98;91.17
74613;BME280;63119;51.788;8.824;2022-12-07T10:10:37;99952.47;;;3.98;90.84
74613;BME280;63119;51.788;8.824;2022-12-07T10:13:14;99954.97;;;4.01;90.53
74613;BME280;63119;51.788;8.824;2022-12-07T10:15:54;99954.31;;;4.16;90.49
74613;BME280;63119;51.788;8.824;2022-12-07T10:18:24;99960.59;;;4.12;90.32
74613;BME280;63119;51.788;8.824;2022-12-07T10:21:00;99951.03;;;4.11;91.24
74613;BME280;63119;51.788;8.824;2022-12-07T10:23:25;99949.09;;;4.16;90.17
74613;BME280;63119;51.788;8.824;2022-12-07T10:25:51;99947.41;;;4.14;91.13
74613;BME280;63119;51.788;8.824;2022-12-07T10:28:20;99950.72;;;4.19;90.70
74613;BME280;63119;51.788;8.824;2022-12-07T10:33:37;99945.13;;;4.26;89.86
74613;BME280;63119;51.788;8.824;2022-12-07T10:36:21;99941.34;;;4.33;89.85
74613;BME280;63119;51.788;8.824;2022-12-07T10:38:50;99940.16;;;4.20;90.60
74613;BME280;63119;51.788;8.824;2022-12-07T10:41:16;99935.84;;;4.19;90.47
74613;BME280;63119;51.788;8.824;2022-12-07T10:44:07;99941.16;;;4.18;90.63
74613;BME280;63119;51.788;8.824;2022-12-07T10:52:30;99933.09;;;4.22;90.05
74613;BME280;63119;51.788;8.824;2022-12-07T10:55:32;99925.81;;;4.29;90.76
74613;BME280;63119;51.788;8.824;2022-12-07T11:01:14;99921.44;;;4.29;89.43
74613;BME280;63119;51.788;8.824;2022-12-07T11:03:49;99924.97;;;4.28;89.84
74613;BME280;63119;51.788;8.824;2022-12-07T11:14:58;99904.63;;;4.54;89.59
74613;BME280;63119;51.788;8.824;2022-12-07T11:20:44;99902.81;;;4.56;89.34
74613;BME280;63119;51.788;8.824;2022-12-07T11:31:36;99890.97;;;4.66;89.93
74613;BME280;63119;51.788;8.824;2022-12-07T11:34:12;99899.09;;;4.80;90.22
74613;BME280;63119;51.788;8.824;2022-12-07T11:36:47;99892.03;;;4.80;88.17
74613;BME280;63119;51.788;8.824;2022-12-07T11:39:34;99893.31;;;4.72;88.00
74613;BME280;63119;51.788;8.824;2022-12-07T11:42:06;99883.34;;;4.80;89.62
74613;BME280;63119;51.788;8.824;2022-12-07T11:44:40;99884.13;;;4.82;88.47
74613;BME280;63119;51.788;8.824;2022-12-07T11:49:53;99875.91;;;4.71;88.72
74613;BME280;63119;51.788;8.824;2022-12-07T11:52:27;99865.97;;;4.77;88.63
74613;BME280;63119;51.788;8.824;2022-12-07T11:54:57;99870.09;;;4.83;88.16
74613;BME280;63119;51.788;8.824;2022-12-07T11:57:37;99865.91;;;4.79;86.78
74613;BME280;63119;51.788;8.824;2022-12-07T12:02:52;99864.06;;;4.81;87.83
74613;BME280;63119;51.788;8.824;2022-12-07T12:05:22;99863.00;;;4.85;87.47
74613;BME280;63119;51.788;8.824;2022-12-07T12:08:16;99861.09;;;4.88;86.50
74613;BME280;63119;51.788;8.824;2022-12-07T12:10:58;99853.88;;;4.75;85.91
74613;BME280;63119;51.788;8.824;2022-12-07T12:13:48;99853.38;;;4.85;86.54
74613;BME280;63119;51.788;8.824;2022-12-07T12:16:48;99857.81;;;4.83;85.23
74613;BME280;63119;51.788;8.824;2022-12-07T12:19:42;99863.06;;;4.83;86.06
74613;BME280;63119;51.788;8.824;2022-12-07T12:24:39;99857.47;;;4.91;86.12
74613;BME280;63119;51.788;8.824;2022-12-07T12:27:21;99854.56;;;4.97;86.28
74613;BME280;63119;51.788;8.824;2022-12-07T12:29:54;99857.41;;;4.92;86.58
74613;BME280;63119;51.788;8.824;2022-12-07T12:32:22;99847.72;;;4.94;86.87
74613;BME280;63119;51.788;8.824;2022-12-07T12:37:39;99850.94;;;5.00;86.24
74613;BME280;63119;51.788;8.824;2022-12-07T12:45:29;99844.66;;;5.04;84.55
74613;BME280;63119;51.788;8.824;2022-12-07T12:48:02;99844.84;;;4.99;85.72
74613;BME280;63119;51.788;8.824;2022-12-07T12:50:31;99842.31;;;4.97;85.90
74613;BME280;63119;51.788;8.824;2022-12-07T12:53:03;99832.97;;;4.92;86.27
74613;BME280;63119;51.788;8.824;2022-12-07T12:58:35;99829.56;;;4.90;85.90
74613;BME280;63119;51.788;8.824;2022-12-07T13:04:02;99813.38;;;4.99;85.81
74613;BME280;63119;51.788;8.824;2022-12-07T13:08:54;99814.47;;;4.95;85.41
74613;BME280;63119;51.788;8.824;2022-12-07T13:11:40;99812.38;;;5.02;85.04
74613;BME280;63119;51.788;8.824;2022-12-07T13:14:38;99820.06;;;4.87;84.75
74613;BME280;63119;51.788;8.824;2022-12-07T13:17:11;99811.34;;;4.87;84.70
74613;BME280;63119;51.788;8.824;2022-12-07T13:24:57;99809.59;;;4.87;84.48
74613;BME280;63119;51.788;8.824;2022-12-07T13:27:25;99820.34;;;5.00;85.07
74613;BME280;63119;51.788;8.824;2022-12-07T13:29:52;99814.09;;;5.03;84.66
74613;BME280;63119;51.788;8.824;2022-12-07T13:32:24;99815.31;;;4.95;84.41
74613;BME280;63119;51.788;8.824;2022-12-07T13:34:50;99812.16;;;4.89;84.43
74613;BME280;63119;51.788;8.824;2022-12-07T13:37:29;99805.91;;;4.91;85.10
74613;BME280;63119;51.788;8.824;2022-12-07T13:39:58;99803.34;;;4.90;85.72
74613;BME280;63119;51.788;8.824;2022-12-07T13:42:29;99798.91;;;4.92;85.37
74613;BME280;63119;51.788;8.824;2022-12-07T13:44:56;99800.66;;;4.91;85.51
74613;BME280;63119;51.788;8.824;2022-12-07T13:47:41;99798.16;;;5.07;84.92
74613;BME280;63119;51.788;8.824;2022-12-07T13:50:31;99790.09;;;4.93;84.05
74613;BME280;63119;51.788;8.824;2022-12-07T13:52:58;99794.31;;;4.95;84.71
74613;BME280;63119;51.788;8.824;2022-12-07T13:55:24;99790.03;;;4.94;84.66
74613;BME280;63119;51.788;8.824;2022-12-07T13:57:52;99790.59;;;5.01;83.96
74613;BME280;63119;51.788;8.824;2022-12-07T14:00:20;99785.34;;;5.01;84.04
74613;BME280;63119;51.788;8.824;2022-12-07T14:03:04;99787.09;;;5.01;84.30
74613;BME280;63119;51.788;8.824;2022-12-07T14:06:14;99785.03;;;5.07;84.84
74613;BME280;63119;51.788;8.824;2022-12-07T14:08:40;99790.44;;;5.04;84.50
74613;BME280;63119;51.788;8.824;2022-12-07T14:11:12;99787.16;;;4.99;84.39
74613;BME280;63119;51.788;8.824;2022-12-07T14:13:44;99791.34;;;5.03;84.15
74613;BME280;63119;51.788;8.824;2022-12-07T14:16:30;99788.88;;;5.00;85.00
74613;BME280;63119;51.788;8.824;2022-12-07T14:18:58;99789.09;;;4.95;85.06
74613;BME280;63119;51.788;8.824;2022-12-07T14:21:26;99788.13;;;4.98;84.40
74613;BME280;63119;51.788;8.824;2022-12-07T14:24:12;99787.97;;;5.01;84.80
74613;BME280;63119;51.788;8.824;2022-12-07T14:26:39;99790.03;;;4.94;85.04
74613;BME280;63119;51.788;8.824;2022-12-07T14:31:50;99782.38;;;4.90;84.75
74613;BME280;63119;51.788;8.824;2022-12-07T14:34:15;99777.47;;;5.01;84.32
74613;BME280;63119;51.788;8.824;2022-12-07T14:36:40;99781.47;;;4.91;84.61
74613;BME280;63119;51.788;8.824;2022-12-07T14:39:06;99775.75;;;4.83;85.40
74613;BME280;63119;51.788;8.824;2022-12-07T14:41:31;99773.31;;;4.78;86.28
74613;BME280;63119;51.788;8.824;2022-12-07T14:44:15;99771.69;;;4.76;86.60
74613;BME280;63119;51.788;8.824;2022-12-07T14:46:40;99771.47;;;4.80;85.71
74613;BME280;63119;51.788;8.824;2022-12-07T14:49:05;99771.91;;;4.71;85.99